sensor_id;sensor_type;location;lat;lon;timestamp;pressure;altitude;pressure_sealevel;temperature;humidity
50852;BME280;43953;45.508;-122.806;2023-04-26T00:00:16;101302.41;;;23.20;29.64
50852;BME280;43953;45.508;-122.806;2023-04-26T00:00:48;101300.47;;;23.21;29.92
50852;BME280;43953;45.508;-122.806;2023-04-26T00:01:20;101302.09;;;23.22;30.03
50852;BME280;43953;45.508;-122.806;2023-04-26T00:01:52;101303.75;;;23.23;29.68
50852;BME280;43953;45.508;-122.806;2023-04-26T00:02:24;101304.59;;;23.23;29.81
50852;BME280;43953;45.508;-122.806;2023-04-26T00:02:57;101308.16;;;23.24;29.54
50852;BME280;43953;45.508;-122.806;2023-04-26T00:03:30;101304.28;;;23.25;29.73
50852;BME280;43953;45.508;-122.806;2023-04-26T00:04:03;101302.09;;;23.27;29.63
50852;BME280;43953;45.508;-122.806;2023-04-26T00:04:34;101295.47;;;23.28;29.61
50852;BME280;43953;45.508;-122.806;2023-04-26T00:05:06;101302.66;;;23.29;29.35
50852;BME280;43953;45.508;-122.806;2023-04-26T00:05:39;101297.16;;;23.29;29.53
50852;BME280;43953;45.508;-122.806;2023-04-26T00:06:11;101299.59;;;23.30;29.53
50852;BME280;43953;45.508;-122.806;2023-04-26T00:06:44;101299.59;;;23.30;29.50
50852;BME280;43953;45.508;-122.806;2023-04-26T00:07:16;101304.28;;;23.30;29.40
50852;BME280;43953;45.508;-122.806;2023-04-26T00:07:48;101306.47;;;23.28;29.55
50852;BME280;43953;45.508;-122.806;2023-04-26T00:08:20;101300.97;;;23.28;29.57
50852;BME280;43953;45.508;-122.806;2023-04-26T00:08:52;101300.16;;;23.27;29.27
50852;BME280;43953;45.508;-122.806;2023-04-26T00:09:24;101304.03;;;23.26;29.29
50852;BME280;43953;45.508;-122.806;2023-04-26T00:09:56;101300.47;;;23.26;29.63
50852;BME280;43953;45.508;-122.806;2023-04-26T00:10:27;101300.47;;;23.26;29.19
50852;BME280;43953;45.508;-122.806;2023-04-26T00:10:59;101302.09;;;23.27;29.29
50852;BME280;43953;45.508;-122.806;2023-04-26T00:11:31;101291.66;;;23.29;29.36
50852;BME280;43953;45.508;-122.806;2023-04-26T00:12:03;101301.53;;;23.30;29.38
50852;BME280;43953;45.508;-122.806;2023-04-26T00:12:35;101299.59;;;23.30;29.41
50852;BME280;43953;45.508;-122.806;2023-04-26T00:13:07;101297.97;;;23.29;29.36
50852;BME280;43953;45.508;-122.806;2023-04-26T00:13:39;101293.84;;;23.27;29.29
50852;BME280;43953;45.508;-122.806;2023-04-26T00:14:11;101296.34;;;23.23;29.32
50852;BME280;43953;45.508;-122.806;2023-04-26T00:14:43;101297.72;;;23.21;29.30
50852;BME280;43953;45.508;-122.806;2023-04-26T00:15:15;101302.94;;;23.17;29.39
50852;BME280;43953;45.508;-122.806;2023-04-26T00:15:47;101306.25;;;23.14;29.29
50852;BME280;43953;45.508;-122.806;2023-04-26T00:16:18;101311.50;;;23.10;29.34
50852;BME280;43953;45.508;-122.806;2023-04-26T00:16:51;101299.41;;;23.06;29.78
50852;BME280;43953;45.508;-122.806;2023-04-26T00:17:23;101298.59;;;23.06;29.86
50852;BME280;43953;45.508;-122.806;2023-04-26T00:17:55;101304.06;;;23.06;30.05
50852;BME280;43953;45.508;-122.806;2023-04-26T00:18:27;101303.25;;;23.05;30.20
50852;BME280;43953;45.508;-122.806;2023-04-26T00:18:58;101304.91;;;23.06;30.31
50852;BME280;43953;45.508;-122.806;2023-04-26T00:19:30;101304.06;;;23.06;29.54
50852;BME280;43953;45.508;-122.806;2023-04-26T00:20:02;101312.59;;;23.04;29.64
50852;BME280;43953;45.508;-122.806;2023-04-26T00:20:37;101308.19;;;23.03;29.71
50852;BME280;43953;45.508;-122.806;2023-04-26T00:21:09;101307.13;;;23.04;29.44
50852;BME280;43953;45.508;-122.806;2023-04-26T00:21:41;101305.19;;;23.05;29.65
50852;BME280;43953;45.508;-122.806;2023-04-26T00:22:13;101306.81;;;23.06;29.38
50852;BME280;43953;45.508;-122.806;2023-04-26T00:22:45;101310.13;;;23.08;29.35
50852;BME280;43953;45.508;-122.806;2023-04-26T00:23:17;101310.94;;;23.08;29.31
50852;BME280;43953;45.508;-122.806;2023-04-26T00:23:49;101311.50;;;23.10;29.12
50852;BME280;43953;45.508;-122.806;2023-04-26T00:24:20;101312.56;;;23.09;29.49
50852;BME280;43953;45.508;-122.806;2023-04-26T00:24:52;101307.09;;;23.09;29.60
50852;BME280;43953;45.508;-122.806;2023-04-26T00:25:24;101310.13;;;23.08;29.81
50852;BME280;43953;45.508;-122.806;2023-04-26T00:25:56;101307.94;;;23.05;29.72
50852;BME280;43953;45.508;-122.806;2023-04-26T00:26:28;101308.75;;;23.05;29.79
50852;BME280;43953;45.508;-122.806;2023-04-26T00:27:00;101309.88;;;23.04;29.72
50852;BME280;43953;45.508;-122.806;2023-04-26T00:27:35;101306.56;;;23.02;29.77
50852;BME280;43953;45.508;-122.806;2023-04-26T00:28:07;101309.56;;;23.01;30.13
50852;BME280;43953;45.508;-122.806;2023-04-26T00:28:38;101312.63;;;22.99;30.05
50852;BME280;43953;45.508;-122.806;2023-04-26T00:29:10;101313.44;;;23.00;30.10
50852;BME280;43953;45.508;-122.806;2023-04-26T00:29:42;101308.19;;;22.98;30.10
50852;BME280;43953;45.508;-122.806;2023-04-26T00:30:14;101301.59;;;22.94;30.08
50852;BME280;43953;45.508;-122.806;2023-04-26T00:30:46;101309.28;;;22.92;30.33
50852;BME280;43953;45.508;-122.806;2023-04-26T00:31:19;101308.47;;;22.86;30.37
50852;BME280;43953;45.508;-122.806;2023-04-26T00:31:50;101308.19;;;22.83;30.56
50852;BME280;43953;45.508;-122.806;2023-04-26T00:32:24;101303.81;;;22.82;30.71
50852;BME280;43953;45.508;-122.806;2023-04-26T00:32:56;101302.19;;;22.81;31.08
50852;BME280;43953;45.508;-122.806;2023-04-26T00:33:27;101301.06;;;22.82;31.03
50852;BME280;43953;45.508;-122.806;2023-04-26T00:34:00;101305.44;;;22.83;31.09
50852;BME280;43953;45.508;-122.806;2023-04-26T00:34:35;101300.78;;;22.83;31.00
50852;BME280;43953;45.508;-122.806;2023-04-26T00:35:07;101297.78;;;22.85;31.06
50852;BME280;43953;45.508;-122.806;2023-04-26T00:35:39;101301.06;;;22.87;30.89
50852;BME280;43953;45.508;-122.806;2023-04-26T00:36:12;101298.34;;;22.87;31.01
50852;BME280;43953;45.508;-122.806;2023-04-26T00:36:44;101303.53;;;22.88;30.95
50852;BME280;43953;45.508;-122.806;2023-04-26T00:37:16;101297.22;;;22.88;30.95
50852;BME280;43953;45.508;-122.806;2023-04-26T00:37:48;101296.66;;;22.86;30.67
50852;BME280;43953;45.508;-122.806;2023-04-26T00:38:19;101289.00;;;22.78;30.15
50852;BME280;43953;45.508;-122.806;2023-04-26T00:38:51;101295.06;;;22.75;30.49
50852;BME280;43953;45.508;-122.806;2023-04-26T00:39:23;101294.50;;;22.73;30.78
50852;BME280;43953;45.508;-122.806;2023-04-26T00:39:55;101292.84;;;22.71;30.76
50852;BME280;43953;45.508;-122.806;2023-04-26T00:40:27;101295.31;;;22.73;30.88
50852;BME280;43953;45.508;-122.806;2023-04-26T00:41:00;101301.63;;;22.74;31.20
50852;BME280;43953;45.508;-122.806;2023-04-26T00:41:32;101297.81;;;22.75;31.01
50852;BME280;43953;45.508;-122.806;2023-04-26T00:42:04;101290.66;;;22.74;30.88
50852;BME280;43953;45.508;-122.806;2023-04-26T00:42:37;101301.91;;;22.72;30.70
50852;BME280;43953;45.508;-122.806;2023-04-26T00:43:10;101301.06;;;22.71;31.27
50852;BME280;43953;45.508;-122.806;2023-04-26T00:43:41;101301.63;;;22.74;31.00
50852;BME280;43953;45.508;-122.806;2023-04-26T00:44:13;101301.06;;;22.77;30.93
50852;BME280;43953;45.508;-122.806;2023-04-26T00:44:45;101302.75;;;22.78;30.90
50852;BME280;43953;45.508;-122.806;2023-04-26T00:45:17;101300.00;;;22.78;30.72
50852;BME280;43953;45.508;-122.806;2023-04-26T00:45:49;101296.97;;;22.79;30.53
50852;BME280;43953;45.508;-122.806;2023-04-26T00:46:21;101295.03;;;22.80;30.52
50852;BME280;43953;45.508;-122.806;2023-04-26T00:46:53;101300.53;;;22.80;30.48
50852;BME280;43953;45.508;-122.806;2023-04-26T00:47:28;101302.75;;;22.78;30.51
50852;BME280;43953;45.508;-122.806;2023-04-26T00:48:02;101300.00;;;22.78;30.46
50852;BME280;43953;45.508;-122.806;2023-04-26T00:48:35;101293.94;;;22.76;30.46
50852;BME280;43953;45.508;-122.806;2023-04-26T00:49:07;101297.81;;;22.75;30.46
50852;BME280;43953;45.508;-122.806;2023-04-26T00:49:39;101297.81;;;22.75;30.69
50852;BME280;43953;45.508;-122.806;2023-04-26T00:50:11;101297.81;;;22.75;30.72
50852;BME280;43953;45.508;-122.806;2023-04-26T00:50:43;101297.25;;;22.73;30.37
50852;BME280;43953;45.508;-122.806;2023-04-26T00:51:15;101297.78;;;22.69;30.27
50852;BME280;43953;45.508;-122.806;2023-04-26T00:51:47;101295.31;;;22.68;30.35
50852;BME280;43953;45.508;-122.806;2023-04-26T00:52:20;101290.38;;;22.65;30.71
50852;BME280;43953;45.508;-122.806;2023-04-26T00:52:53;101296.16;;;22.63;30.74
50852;BME280;43953;45.508;-122.806;2023-04-26T00:53:26;101296.16;;;22.63;30.50
50852;BME280;43953;45.508;-122.806;2023-04-26T00:53:58;101295.03;;;22.59;30.73
50852;BME280;43953;45.508;-122.806;2023-04-26T00:54:30;101295.06;;;22.54;30.69
50852;BME280;43953;45.508;-122.806;2023-04-26T00:55:02;101293.44;;;22.48;30.78
50852;BME280;43953;45.508;-122.806;2023-04-26T00:55:34;101290.69;;;22.43;30.76
50852;BME280;43953;45.508;-122.806;2023-04-26T00:56:08;101293.41;;;22.38;31.01
50852;BME280;43953;45.508;-122.806;2023-04-26T00:56:41;101293.97;;;22.35;31.22
50852;BME280;43953;45.508;-122.806;2023-04-26T00:57:13;101294.50;;;22.32;31.52
50852;BME280;43953;45.508;-122.806;2023-04-26T00:57:46;101288.19;;;22.31;31.66
50852;BME280;43953;45.508;-122.806;2023-04-26T00:58:17;101289.56;;;22.29;31.41
50852;BME280;43953;45.508;-122.806;2023-04-26T00:58:49;101285.44;;;22.26;31.34
50852;BME280;43953;45.508;-122.806;2023-04-26T00:59:21;101286.81;;;22.23;31.35
50852;BME280;43953;45.508;-122.806;2023-04-26T00:59:53;101284.63;;;22.20;31.22
50852;BME280;43953;45.508;-122.806;2023-04-26T01:00:25;101282.94;;;22.14;31.52
50852;BME280;43953;45.508;-122.806;2023-04-26T01:00:57;101287.59;;;22.14;31.25
50852;BME280;43953;45.508;-122.806;2023-04-26T01:01:29;101276.38;;;22.10;31.25
50852;BME280;43953;45.508;-122.806;2023-04-26T01:02:04;101281.56;;;22.07;31.34
50852;BME280;43953;45.508;-122.806;2023-04-26T01:02:36;101282.38;;;22.02;31.54
50852;BME280;43953;45.508;-122.806;2023-04-26T01:03:08;101280.75;;;22.01;31.73
50852;BME280;43953;45.508;-122.806;2023-04-26T01:03:41;101284.03;;;21.98;31.65
50852;BME280;43953;45.508;-122.806;2023-04-26T01:04:15;101285.09;;;21.97;31.79
50852;BME280;43953;45.508;-122.806;2023-04-26T01:04:47;101281.53;;;21.96;31.93
50852;BME280;43953;45.508;-122.806;2023-04-26T01:05:19;101283.47;;;21.96;32.03
50852;BME280;43953;45.508;-122.806;2023-04-26T01:05:51;101285.09;;;21.97;32.17
50852;BME280;43953;45.508;-122.806;2023-04-26T01:06:24;101283.47;;;21.96;32.01
50852;BME280;43953;45.508;-122.806;2023-04-26T01:06:56;101284.03;;;21.98;32.00
50852;BME280;43953;45.508;-122.806;2023-04-26T01:07:28;101278.53;;;21.98;32.15
50852;BME280;43953;45.508;-122.806;2023-04-26T01:08:01;101277.16;;;22.00;32.17
50852;BME280;43953;45.508;-122.806;2023-04-26T01:08:34;101273.34;;;22.01;32.00
50852;BME280;43953;45.508;-122.806;2023-04-26T01:09:06;101274.97;;;22.02;32.01
50852;BME280;43953;45.508;-122.806;2023-04-26T01:09:41;101277.47;;;22.04;32.09
50852;BME280;43953;45.508;-122.806;2023-04-26T01:10:14;101271.13;;;22.03;31.64
50852;BME280;43953;45.508;-122.806;2023-04-26T01:10:47;101276.59;;;22.03;31.42
50852;BME280;43953;45.508;-122.806;2023-04-26T01:11:20;101269.78;;;22.01;31.30
50852;BME280;43953;45.508;-122.806;2023-04-26T01:11:52;101265.38;;;22.00;31.27
50852;BME280;43953;45.508;-122.806;2023-04-26T01:12:28;101272.22;;;21.97;31.44
50852;BME280;43953;45.508;-122.806;2023-04-26T01:13:01;101272.22;;;21.97;31.44
50852;BME280;43953;45.508;-122.806;2023-04-26T01:13:34;101262.63;;;21.95;31.37
50852;BME280;43953;45.508;-122.806;2023-04-26T01:14:07;101271.94;;;21.94;31.37
50852;BME280;43953;45.508;-122.806;2023-04-26T01:14:40;101268.66;;;21.92;31.58
50852;BME280;43953;45.508;-122.806;2023-04-26T01:15:12;101276.31;;;21.90;31.69
50852;BME280;43953;45.508;-122.806;2023-04-26T01:15:45;101270.28;;;21.88;31.99
50852;BME280;43953;45.508;-122.806;2023-04-26T01:16:18;101271.66;;;21.85;31.63
50852;BME280;43953;45.508;-122.806;2023-04-26T01:16:50;101271.13;;;21.83;31.60
50852;BME280;43953;45.508;-122.806;2023-04-26T01:17:22;101267.53;;;21.83;31.72
50852;BME280;43953;45.508;-122.806;2023-04-26T01:17:55;101270.56;;;21.81;31.96
50852;BME280;43953;45.508;-122.806;2023-04-26T01:18:27;101268.06;;;21.79;31.72
50852;BME280;43953;45.508;-122.806;2023-04-26T01:19:09;101271.34;;;21.76;31.75
50852;BME280;43953;45.508;-122.806;2023-04-26T01:19:49;101273.56;;;21.74;31.46
50852;BME280;43953;45.508;-122.806;2023-04-26T01:20:21;101273.25;;;21.71;31.56
50852;BME280;43953;45.508;-122.806;2023-04-26T01:20:52;101271.06;;;21.68;31.60
50852;BME280;43953;45.508;-122.806;2023-04-26T01:21:27;101275.19;;;21.65;31.38
50852;BME280;43953;45.508;-122.806;2023-04-26T01:21:58;101273.50;;;21.64;31.53
50852;BME280;43953;45.508;-122.806;2023-04-26T01:22:34;101276.78;;;21.61;31.69
50852;BME280;43953;45.508;-122.806;2023-04-26T01:23:06;101275.97;;;21.61;31.92
50852;BME280;43953;45.508;-122.806;2023-04-26T01:23:39;101282.03;;;21.63;31.96
50852;BME280;43953;45.508;-122.806;2023-04-26T01:24:12;101279.53;;;21.61;31.86
50852;BME280;43953;45.508;-122.806;2023-04-26T01:24:47;101268.56;;;21.61;31.80
50852;BME280;43953;45.508;-122.806;2023-04-26T01:25:19;101272.41;;;21.60;31.83
50852;BME280;43953;45.508;-122.806;2023-04-26T01:25:51;101277.34;;;21.63;31.96
50852;BME280;43953;45.508;-122.806;2023-04-26T01:26:24;101276.53;;;21.63;31.94
50852;BME280;43953;45.508;-122.806;2023-04-26T01:26:56;101280.09;;;21.63;31.61
50852;BME280;43953;45.508;-122.806;2023-04-26T01:27:28;101276.53;;;21.63;31.77
50852;BME280;43953;45.508;-122.806;2023-04-26T01:27:59;101276.25;;;21.64;31.55
50852;BME280;43953;45.508;-122.806;2023-04-26T01:28:33;101279.81;;;21.65;31.58
50852;BME280;43953;45.508;-122.806;2023-04-26T01:29:13;101270.22;;;21.62;31.41
50852;BME280;43953;45.508;-122.806;2023-04-26T01:29:44;101279.00;;;21.64;31.45
50852;BME280;43953;45.508;-122.806;2023-04-26T01:30:17;101278.16;;;21.64;31.44
50852;BME280;43953;45.508;-122.806;2023-04-26T01:30:49;101281.72;;;21.64;31.43
50852;BME280;43953;45.508;-122.806;2023-04-26T01:31:21;101283.66;;;21.64;31.26
50852;BME280;43953;45.508;-122.806;2023-04-26T01:31:53;101283.66;;;21.64;31.37
50852;BME280;43953;45.508;-122.806;2023-04-26T01:32:24;101287.22;;;21.64;31.48
50852;BME280;43953;45.508;-122.806;2023-04-26T01:32:56;101281.72;;;21.64;31.28
50852;BME280;43953;45.508;-122.806;2023-04-26T01:33:28;101292.13;;;21.62;31.19
50852;BME280;43953;45.508;-122.806;2023-04-26T01:33:59;101290.50;;;21.61;31.41
50852;BME280;43953;45.508;-122.806;2023-04-26T01:34:31;101286.66;;;21.62;31.52
50852;BME280;43953;45.508;-122.806;2023-04-26T01:35:05;101283.09;;;21.62;31.39
50852;BME280;43953;45.508;-122.806;2023-04-26T01:35:37;101294.06;;;21.62;31.48
50852;BME280;43953;45.508;-122.806;2023-04-26T01:36:09;101288.84;;;21.60;31.46
50852;BME280;43953;45.508;-122.806;2023-04-26T01:36:41;101293.22;;;21.61;31.41
50852;BME280;43953;45.508;-122.806;2023-04-26T01:37:13;101287.19;;;21.59;31.53
50852;BME280;43953;45.508;-122.806;2023-04-26T01:37:44;101289.09;;;21.58;31.29
50852;BME280;43953;45.508;-122.806;2023-04-26T01:38:16;101288.56;;;21.56;31.29
50852;BME280;43953;45.508;-122.806;2023-04-26T01:38:50;101292.38;;;21.55;31.27
50852;BME280;43953;45.508;-122.806;2023-04-26T01:39:21;101288.81;;;21.55;31.53
50852;BME280;43953;45.508;-122.806;2023-04-26T01:39:53;101275.66;;;21.52;31.54
50852;BME280;43953;45.508;-122.806;2023-04-26T01:40:26;101281.16;;;21.52;31.69
50852;BME280;43953;45.508;-122.806;2023-04-26T01:40:57;101275.66;;;21.52;31.90
50852;BME280;43953;45.508;-122.806;2023-04-26T01:41:29;101281.97;;;21.52;31.84
50852;BME280;43953;45.508;-122.806;2023-04-26T01:42:01;101275.66;;;21.52;31.79
50852;BME280;43953;45.508;-122.806;2023-04-26T01:42:34;101274.84;;;21.51;31.52
50852;BME280;43953;45.508;-122.806;2023-04-26T01:43:06;101285.00;;;21.51;31.16
50852;BME280;43953;45.508;-122.806;2023-04-26T01:43:38;101275.66;;;21.52;31.31
50852;BME280;43953;45.508;-122.806;2023-04-26T01:44:10;101273.22;;;21.50;31.49
50852;BME280;43953;45.508;-122.806;2023-04-26T01:44:42;101274.84;;;21.51;31.46
50852;BME280;43953;45.508;-122.806;2023-04-26T01:45:13;101271.28;;;21.51;31.35
50852;BME280;43953;45.508;-122.806;2023-04-26T01:45:48;101273.22;;;21.50;31.20
50852;BME280;43953;45.508;-122.806;2023-04-26T01:46:20;101273.22;;;21.50;31.22
50852;BME280;43953;45.508;-122.806;2023-04-26T01:46:52;101272.38;;;21.50;31.27
50852;BME280;43953;45.508;-122.806;2023-04-26T01:47:24;101265.25;;;21.49;31.55
50852;BME280;43953;45.508;-122.806;2023-04-26T01:47:56;101275.38;;;21.48;31.47
50852;BME280;43953;45.508;-122.806;2023-04-26T01:48:28;101272.66;;;21.48;31.43
50852;BME280;43953;45.508;-122.806;2023-04-26T01:49:00;101268.25;;;21.47;31.54
50852;BME280;43953;45.508;-122.806;2023-04-26T01:49:32;101271.25;;;21.46;31.37
50852;BME280;43953;45.508;-122.806;2023-04-26T01:50:04;101270.44;;;21.45;31.52
50852;BME280;43953;45.508;-122.806;2023-04-26T01:50:36;101266.03;;;21.44;31.63
50852;BME280;43953;45.508;-122.806;2023-04-26T01:51:08;101268.25;;;21.42;31.43
50852;BME280;43953;45.508;-122.806;2023-04-26T01:51:40;101263.84;;;21.41;31.52
50852;BME280;43953;45.508;-122.806;2023-04-26T01:52:12;101264.13;;;21.40;31.50
50852;BME280;43953;45.508;-122.806;2023-04-26T01:52:43;101263.56;;;21.38;31.36
50852;BME280;43953;45.508;-122.806;2023-04-26T01:53:15;101260.25;;;21.35;31.33
50852;BME280;43953;45.508;-122.806;2023-04-26T01:53:47;101264.88;;;21.35;31.41
50852;BME280;43953;45.508;-122.806;2023-04-26T01:54:19;101259.41;;;21.35;31.54
50852;BME280;43953;45.508;-122.806;2023-04-26T01:54:51;101262.41;;;21.33;31.60
50852;BME280;43953;45.508;-122.806;2023-04-26T01:55:23;101259.13;;;21.31;31.76
50852;BME280;43953;45.508;-122.806;2023-04-26T01:55:55;101259.13;;;21.31;31.74
50852;BME280;43953;45.508;-122.806;2023-04-26T01:56:26;101257.47;;;21.30;31.83
50852;BME280;43953;45.508;-122.806;2023-04-26T01:56:58;101258.56;;;21.29;31.70
50852;BME280;43953;45.508;-122.806;2023-04-26T01:57:30;101260.47;;;21.29;31.45
50852;BME280;43953;45.508;-122.806;2023-04-26T01:58:02;101257.19;;;21.27;31.46
50852;BME280;43953;45.508;-122.806;2023-04-26T01:58:33;101256.63;;;21.25;31.69
50852;BME280;43953;45.508;-122.806;2023-04-26T01:59:05;101258.56;;;21.24;31.34
50852;BME280;43953;45.508;-122.806;2023-04-26T01:59:37;101258.25;;;21.21;31.33
50852;BME280;43953;45.508;-122.806;2023-04-26T02:00:09;101253.28;;;21.18;31.32
50852;BME280;43953;45.508;-122.806;2023-04-26T02:00:41;101251.66;;;21.17;31.67
50852;BME280;43953;45.508;-122.806;2023-04-26T02:01:13;101256.31;;;21.16;31.76
50852;BME280;43953;45.508;-122.806;2023-04-26T02:01:45;101257.94;;;21.17;31.75
50852;BME280;43953;45.508;-122.806;2023-04-26T02:02:17;101255.50;;;21.16;31.98
50852;BME280;43953;45.508;-122.806;2023-04-26T02:02:49;101250.28;;;21.14;31.63
50852;BME280;43953;45.508;-122.806;2023-04-26T02:03:20;101250.56;;;21.12;31.54
50852;BME280;43953;45.508;-122.806;2023-04-26T02:03:52;101248.88;;;21.11;31.50
50852;BME280;43953;45.508;-122.806;2023-04-26T02:04:24;101250.00;;;21.10;31.71
50852;BME280;43953;45.508;-122.806;2023-04-26T02:04:56;101251.09;;;21.09;31.42
50852;BME280;43953;45.508;-122.806;2023-04-26T02:05:28;101243.13;;;21.08;31.34
50852;BME280;43953;45.508;-122.806;2023-04-26T02:06:00;101245.28;;;21.06;31.29
50852;BME280;43953;45.508;-122.806;2023-04-26T02:06:31;101249.69;;;21.07;31.79
50852;BME280;43953;45.508;-122.806;2023-04-26T02:07:03;101246.97;;;21.07;31.95
50852;BME280;43953;45.508;-122.806;2023-04-26T02:07:35;101244.22;;;21.07;31.89
50852;BME280;43953;45.508;-122.806;2023-04-26T02:08:07;101249.69;;;21.07;31.66
50852;BME280;43953;45.508;-122.806;2023-04-26T02:08:38;101246.69;;;21.08;31.72
50852;BME280;43953;45.508;-122.806;2023-04-26T02:09:10;101240.38;;;21.08;31.63
50852;BME280;43953;45.508;-122.806;2023-04-26T02:09:42;101243.94;;;21.08;31.67
50852;BME280;43953;45.508;-122.806;2023-04-26T02:10:14;101245.63;;;21.09;31.46
50852;BME280;43953;45.508;-122.806;2023-04-26T02:10:46;101240.94;;;21.10;31.54
50852;BME280;43953;45.508;-122.806;2023-04-26T02:11:17;101243.69;;;21.10;31.53
50852;BME280;43953;45.508;-122.806;2023-04-26T02:11:49;101242.88;;;21.09;31.42
50852;BME280;43953;45.508;-122.806;2023-04-26T02:12:21;101243.69;;;21.10;31.58
50852;BME280;43953;45.508;-122.806;2023-04-26T02:12:53;101243.13;;;21.08;31.41
50852;BME280;43953;45.508;-122.806;2023-04-26T02:13:25;101242.31;;;21.07;31.78
50852;BME280;43953;45.508;-122.806;2023-04-26T02:13:57;101246.97;;;21.07;31.73
50852;BME280;43953;45.508;-122.806;2023-04-26T02:14:28;101241.50;;;21.07;31.77
50852;BME280;43953;45.508;-122.806;2023-04-26T02:15:00;101245.28;;;21.06;31.83
50852;BME280;43953;45.508;-122.806;2023-04-26T02:15:32;101238.19;;;21.05;31.67
50852;BME280;43953;45.508;-122.806;2023-04-26T02:16:04;101234.88;;;21.03;31.30
50852;BME280;43953;45.508;-122.806;2023-04-26T02:16:38;101240.34;;;20.98;31.24
50852;BME280;43953;45.508;-122.806;2023-04-26T02:17:10;101236.78;;;20.97;31.70
50852;BME280;43953;45.508;-122.806;2023-04-26T02:17:42;101244.16;;;20.97;31.74
50852;BME280;43953;45.508;-122.806;2023-04-26T02:18:14;101238.97;;;20.95;31.79
50852;BME280;43953;45.508;-122.806;2023-04-26T02:18:47;101238.16;;;20.95;31.94
50852;BME280;43953;45.508;-122.806;2023-04-26T02:19:23;101236.47;;;20.94;31.85
50852;BME280;43953;45.508;-122.806;2023-04-26T02:19:55;101236.47;;;20.94;31.65
50852;BME280;43953;45.508;-122.806;2023-04-26T02:20:27;101241.13;;;20.93;31.65
50852;BME280;43953;45.508;-122.806;2023-04-26T02:20:58;101238.16;;;20.95;31.68
50852;BME280;43953;45.508;-122.806;2023-04-26T02:21:30;101240.06;;;20.94;31.70
50852;BME280;43953;45.508;-122.806;2023-04-26T02:22:04;101241.94;;;20.94;31.48
50852;BME280;43953;45.508;-122.806;2023-04-26T02:22:36;101243.88;;;20.93;31.40
50852;BME280;43953;45.508;-122.806;2023-04-26T02:23:08;101239.50;;;20.92;31.56
50852;BME280;43953;45.508;-122.806;2023-04-26T02:23:40;101238.69;;;20.92;31.58
50852;BME280;43953;45.508;-122.806;2023-04-26T02:24:12;101234.28;;;20.90;31.57
50852;BME280;43953;45.508;-122.806;2023-04-26T02:24:44;101232.63;;;20.89;31.56
50852;BME280;43953;45.508;-122.806;2023-04-26T02:25:16;101239.22;;;20.88;31.51
50852;BME280;43953;45.508;-122.806;2023-04-26T02:25:48;101235.91;;;20.86;31.51
50852;BME280;43953;45.508;-122.806;2023-04-26T02:26:20;101232.34;;;20.86;31.87
50852;BME280;43953;45.508;-122.806;2023-04-26T02:26:52;101234.25;;;20.85;31.85
50852;BME280;43953;45.508;-122.806;2023-04-26T02:27:24;101232.59;;;20.84;31.86
50852;BME280;43953;45.508;-122.806;2023-04-26T02:27:56;101231.22;;;20.82;32.10
50852;BME280;43953;45.508;-122.806;2023-04-26T02:28:28;101237.78;;;20.81;32.00
50852;BME280;43953;45.508;-122.806;2023-04-26T02:29:00;101238.03;;;20.79;32.01
50852;BME280;43953;45.508;-122.806;2023-04-26T02:29:31;101234.75;;;20.77;31.86
50852;BME280;43953;45.508;-122.806;2023-04-26T02:30:04;101238.56;;;20.76;31.99
50852;BME280;43953;45.508;-122.806;2023-04-26T02:30:35;101235.81;;;20.76;32.02
50852;BME280;43953;45.508;-122.806;2023-04-26T02:31:07;101239.66;;;20.75;32.09
50852;BME280;43953;45.508;-122.806;2023-04-26T02:31:39;101232.56;;;20.74;32.08
50852;BME280;43953;45.508;-122.806;2023-04-26T02:32:14;101238.28;;;20.73;32.24
50852;BME280;43953;45.508;-122.806;2023-04-26T02:32:45;101235.81;;;20.71;32.67
50852;BME280;43953;45.508;-122.806;2023-04-26T02:33:17;101229.78;;;20.69;32.25
50852;BME280;43953;45.508;-122.806;2023-04-26T02:33:49;101237.16;;;20.68;32.53
50852;BME280;43953;45.508;-122.806;2023-04-26T02:34:21;101234.69;;;20.67;32.45
50852;BME280;43953;45.508;-122.806;2023-04-26T02:34:52;101237.69;;;20.65;32.50
50852;BME280;43953;45.508;-122.806;2023-04-26T02:35:24;101237.13;;;20.63;32.41
50852;BME280;43953;45.508;-122.806;2023-04-26T02:35:57;101243.94;;;20.61;32.67
50852;BME280;43953;45.508;-122.806;2023-04-26T02:36:29;101230.53;;;20.59;32.83
50852;BME280;43953;45.508;-122.806;2023-04-26T02:37:01;101239.81;;;20.58;32.78
50852;BME280;43953;45.508;-122.806;2023-04-26T02:37:33;101231.31;;;20.55;32.71
50852;BME280;43953;45.508;-122.806;2023-04-26T02:38:04;101242.25;;;20.55;32.70
50852;BME280;43953;45.508;-122.806;2023-04-26T02:38:37;101239.19;;;20.51;32.90
50852;BME280;43953;45.508;-122.806;2023-04-26T02:39:08;101240.03;;;20.52;32.89
50852;BME280;43953;45.508;-122.806;2023-04-26T02:39:40;101241.94;;;20.51;32.80
50852;BME280;43953;45.508;-122.806;2023-04-26T02:40:12;101240.28;;;20.50;32.70
50852;BME280;43953;45.508;-122.806;2023-04-26T02:40:44;101238.63;;;20.49;32.91
50852;BME280;43953;45.508;-122.806;2023-04-26T02:41:15;101233.44;;;20.48;32.84
50852;BME280;43953;45.508;-122.806;2023-04-26T02:41:47;101242.72;;;20.46;33.06
50852;BME280;43953;45.508;-122.806;2023-04-26T02:42:19;101238.63;;;20.44;33.19